sensor_id;sensor_type;location;lat;lon;timestamp;temperature;humidity
60242;SHT30;46103;52.076;113.488;2023-03-05T00:01:30;1.30;27.11
60242;SHT30;46103;52.076;113.488;2023-03-05T00:04:37;1.29;27.27
60242;SHT30;46103;52.076;113.488;2023-03-05T00:07:40;1.22;27.47
60242;SHT30;46103;52.076;113.488;2023-03-05T00:10:43;1.16;27.45
60242;SHT30;46103;52.076;113.488;2023-03-05T00:13:50;1.15;27.75
60242;SHT30;46103;52.076;113.488;2023-03-05T00:16:53;1.15;27.49
60242;SHT30;46103;52.076;113.488;2023-03-05T00:19:57;1.19;27.68
60242;SHT30;46103;52.076;113.488;2023-03-05T00:23:03;1.20;27.75
60242;SHT30;46103;52.076;113.488;2023-03-05T00:26:07;1.29;27.50
60242;SHT30;46103;52.076;113.488;2023-03-05T00:29:14;1.37;27.60
60242;SHT30;46103;52.076;113.488;2023-03-05T00:32:18;1.46;27.55
60242;SHT30;46103;52.076;113.488;2023-03-05T00:35:22;1.51;27.38
60242;SHT30;46103;52.076;113.488;2023-03-05T00:38:26;1.64;27.22
60242;SHT30;46103;52.076;113.488;2023-03-05T00:41:30;1.70;27.03
60242;SHT30;46103;52.076;113.488;2023-03-05T00:44:34;1.77;27.03
60242;SHT30;46103;52.076;113.488;2023-03-05T00:47:38;1.85;27.05
60242;SHT30;46103;52.076;113.488;2023-03-05T00:50:42;1.83;26.58
60242;SHT30;46103;52.076;113.488;2023-03-05T00:53:47;2.01;26.66
60242;SHT30;46103;52.076;113.488;2023-03-05T00:56:50;2.05;26.56
60242;SHT30;46103;52.076;113.488;2023-03-05T00:59:54;2.13;26.82
60242;SHT30;46103;52.076;113.488;2023-03-05T01:02:58;2.22;26.24
60242;SHT30;46103;52.076;113.488;2023-03-05T01:06:08;2.27;25.71
60242;SHT30;46103;52.076;113.488;2023-03-05T01:09:12;2.22;25.80
60242;SHT30;46103;52.076;113.488;2023-03-05T01:12:16;2.05;25.77
60242;SHT30;46103;52.076;113.488;2023-03-05T01:15:21;2.01;25.20
60242;SHT30;46103;52.076;113.488;2023-03-05T01:18:25;1.92;25.02
60242;SHT30;46103;52.076;113.488;2023-03-05T01:21:31;1.81;25.19
60242;SHT30;46103;52.076;113.488;2023-03-05T01:24:38;1.81;25.17
60242;SHT30;46103;52.076;113.488;2023-03-05T01:27:41;1.83;25.54
60242;SHT30;46103;52.076;113.488;2023-03-05T01:30:47;1.95;24.67
60242;SHT30;46103;52.076;113.488;2023-03-05T01:33:54;2.03;24.75
60242;SHT30;46103;52.076;113.488;2023-03-05T01:36:57;2.05;24.62
60242;SHT30;46103;52.076;113.488;2023-03-05T01:40:01;2.01;24.08
60242;SHT30;46103;52.076;113.488;2023-03-05T01:46:36;2.10;24.18
60242;SHT30;46103;52.076;113.488;2023-03-05T01:49:41;1.99;22.70
60242;SHT30;46103;52.076;113.488;2023-03-05T01:52:54;1.99;23.15
60242;SHT30;46103;52.076;113.488;2023-03-05T01:55:59;1.95;23.36
60242;SHT30;46103;52.076;113.488;2023-03-05T01:59:03;2.02;24.01
60242;SHT30;46103;52.076;113.488;2023-03-05T02:02:08;2.05;23.57
60242;SHT30;46103;52.076;113.488;2023-03-05T02:05:15;2.05;23.57
60242;SHT30;46103;52.076;113.488;2023-03-05T02:08:21;2.10;23.91
60242;SHT30;46103;52.076;113.488;2023-03-05T02:11:25;2.08;23.64
60242;SHT30;46103;52.076;113.488;2023-03-05T02:14:30;1.99;23.93
60242;SHT30;46103;52.076;113.488;2023-03-05T02:17:34;2.05;24.11
60242;SHT30;46103;52.076;113.488;2023-03-05T02:21:09;2.05;23.70
60242;SHT30;46103;52.076;113.488;2023-03-05T02:24:15;2.06;24.33
60242;SHT30;46103;52.076;113.488;2023-03-05T02:27:21;1.96;24.36
60242;SHT30;46103;52.076;113.488;2023-03-05T02:30:27;1.99;25.00
60242;SHT30;46103;52.076;113.488;2023-03-05T02:33:30;2.01;24.58
60242;SHT30;46103;52.076;113.488;2023-03-05T02:36:34;2.15;25.33
60242;SHT30;46103;52.076;113.488;2023-03-05T02:39:39;2.23;24.91
60242;SHT30;46103;52.076;113.488;2023-03-05T02:42:44;2.29;25.62
60242;SHT30;46103;52.076;113.488;2023-03-05T02:45:50;2.30;25.30
60242;SHT30;46103;52.076;113.488;2023-03-05T02:48:54;2.37;25.27
60242;SHT30;46103;52.076;113.488;2023-03-05T02:51:58;2.26;25.22
60242;SHT30;46103;52.076;113.488;2023-03-05T02:55:03;2.27;25.69
60242;SHT30;46103;52.076;113.488;2023-03-05T02:58:07;2.32;25.31
60242;SHT30;46103;52.076;113.488;2023-03-05T03:01:10;2.33;24.89
60242;SHT30;46103;52.076;113.488;2023-03-05T03:04:14;2.41;25.32
60242;SHT30;46103;52.076;113.488;2023-03-05T03:07:21;2.36;25.46
60242;SHT30;46103;52.076;113.488;2023-03-05T03:10:26;2.50;25.68
60242;SHT30;46103;52.076;113.488;2023-03-05T03:13:30;2.53;25.57
60242;SHT30;46103;52.076;113.488;2023-03-05T03:16:33;2.60;24.56
60242;SHT30;46103;52.076;113.488;2023-03-05T03:19:38;2.60;25.46
60242;SHT30;46103;52.076;113.488;2023-03-05T03:22:43;2.70;24.71
60242;SHT30;46103;52.076;113.488;2023-03-05T03:25:48;2.61;24.56
60242;SHT30;46103;52.076;113.488;2023-03-05T03:28:52;2.55;23.73
60242;SHT30;46103;52.076;113.488;2023-03-05T03:31:55;2.54;24.20
60242;SHT30;46103;52.076;113.488;2023-03-05T03:34:59;2.62;24.18
60242;SHT30;46103;52.076;113.488;2023-03-05T03:38:03;2.66;24.65
60242;SHT30;46103;52.076;113.488;2023-03-05T03:41:08;2.74;24.33
60242;SHT30;46103;52.076;113.488;2023-03-05T03:44:12;2.78;24.47
60242;SHT30;46103;52.076;113.488;2023-03-05T03:47:16;2.99;24.20
60242;SHT30;46103;52.076;113.488;2023-03-05T03:50:19;2.98;24.60
60242;SHT30;46103;52.076;113.488;2023-03-05T03:53:23;3.02;24.46
60242;SHT30;46103;52.076;113.488;2023-03-05T03:56:26;3.05;25.04
60242;SHT30;46103;52.076;113.488;2023-03-05T03:59:30;3.09;25.14
60242;SHT30;46103;52.076;113.488;2023-03-05T04:02:33;3.05;25.20
60242;SHT30;46103;52.076;113.488;2023-03-05T04:05:37;3.06;25.55
60242;SHT30;46103;52.076;113.488;2023-03-05T04:08:41;3.08;26.33
60242;SHT30;46103;52.076;113.488;2023-03-05T04:11:45;3.09;25.83
60242;SHT30;46103;52.076;113.488;2023-03-05T04:14:49;2.92;25.59
60242;SHT30;46103;52.076;113.488;2023-03-05T04:17:54;2.92;26.32
60242;SHT30;46103;52.076;113.488;2023-03-05T04:20:58;2.89;25.65
60242;SHT30;46103;52.076;113.488;2023-03-05T04:24:02;2.81;25.04
60242;SHT30;46103;52.076;113.488;2023-03-05T04:27:07;2.66;24.94
60242;SHT30;46103;52.076;113.488;2023-03-05T04:30:13;2.53;25.04
60242;SHT30;46103;52.076;113.488;2023-03-05T04:33:20;2.44;25.14
60242;SHT30;46103;52.076;113.488;2023-03-05T04:36:24;2.53;25.36
60242;SHT30;46103;52.076;113.488;2023-03-05T04:39:28;2.55;25.39
60242;SHT30;46103;52.076;113.488;2023-03-05T04:42:32;2.64;25.38
60242;SHT30;46103;52.076;113.488;2023-03-05T04:45:53;2.53;24.35
60242;SHT30;46103;52.076;113.488;2023-03-05T04:49:01;2.75;24.68
60242;SHT30;46103;52.076;113.488;2023-03-05T04:52:06;2.73;24.24
60242;SHT30;46103;52.076;113.488;2023-03-05T04:55:13;2.80;24.37
60242;SHT30;46103;52.076;113.488;2023-03-05T04:58:35;3.06;24.40
60242;SHT30;46103;52.076;113.488;2023-03-05T05:01:56;3.11;24.22
60242;SHT30;46103;52.076;113.488;2023-03-05T05:05:01;3.20;24.29
60242;SHT30;46103;52.076;113.488;2023-03-05T05:08:09;3.30;23.95
60242;SHT30;46103;52.076;113.488;2023-03-05T05:11:16;3.22;24.25
60242;SHT30;46103;52.076;113.488;2023-03-05T05:14:40;3.01;23.97
60242;SHT30;46103;52.076;113.488;2023-03-05T05:17:55;3.03;23.92
60242;SHT30;46103;52.076;113.488;2023-03-05T05:21:13;3.11;24.72
60242;SHT30;46103;52.076;113.488;2023-03-05T05:24:23;3.02;24.32
60242;SHT30;46103;52.076;113.488;2023-03-05T05:27:32;2.81;24.93
60242;SHT30;46103;52.076;113.488;2023-03-05T05:30:44;2.88;24.65
60242;SHT30;46103;52.076;113.488;2023-03-05T05:33:52;2.85;24.60
60242;SHT30;46103;52.076;113.488;2023-03-05T05:37:15;3.03;25.41
60242;SHT30;46103;52.076;113.488;2023-03-05T05:40:21;3.09;24.91
60242;SHT30;46103;52.076;113.488;2023-03-05T05:43:40;3.23;24.98
60242;SHT30;46103;52.076;113.488;2023-03-05T05:47:10;3.29;24.85
60242;SHT30;46103;52.076;113.488;2023-03-05T05:50:38;3.33;24.69
60242;SHT30;46103;52.076;113.488;2023-03-05T05:53:47;3.54;24.91
60242;SHT30;46103;52.076;113.488;2023-03-05T05:56:53;3.51;23.62
60242;SHT30;46103;52.076;113.488;2023-03-05T06:00:10;3.41;23.72
60242;SHT30;46103;52.076;113.488;2023-03-05T06:03:19;3.12;23.64
60242;SHT30;46103;52.076;113.488;2023-03-05T06:06:28;3.02;24.27
60242;SHT30;46103;52.076;113.488;2023-03-05T06:09:36;3.18;24.39
60242;SHT30;46103;52.076;113.488;2023-03-05T06:12:43;3.34;23.97
60242;SHT30;46103;52.076;113.488;2023-03-05T06:16:02;3.15;24.09
60242;SHT30;46103;52.076;113.488;2023-03-05T06:19:15;3.34;23.76
60242;SHT30;46103;52.076;113.488;2023-03-05T06:22:23;3.19;23.94
60242;SHT30;46103;52.076;113.488;2023-03-05T06:25:43;3.34;24.06
60242;SHT30;46103;52.076;113.488;2023-03-05T06:29:01;3.27;24.01
60242;SHT30;46103;52.076;113.488;2023-03-05T06:32:07;3.19;24.47
60242;SHT30;46103;52.076;113.488;2023-03-05T06:35:58;3.54;24.70
60242;SHT30;46103;52.076;113.488;2023-03-05T06:40:22;3.63;24.08
60242;SHT30;46103;52.076;113.488;2023-03-05T06:44:09;3.31;24.81
60242;SHT30;46103;52.076;113.488;2023-03-05T06:48:12;3.75;24.62
60242;SHT30;46103;52.076;113.488;2023-03-05T06:52:16;4.19;24.79
60242;SHT30;46103;52.076;113.488;2023-03-05T06:55:22;4.47;24.07
60242;SHT30;46103;52.076;113.488;2023-03-05T06:58:45;4.52;23.56
60242;SHT30;46103;52.076;113.488;2023-03-05T07:01:50;4.77;23.78
60242;SHT30;46103;52.076;113.488;2023-03-05T07:04:53;4.87;23.54
60242;SHT30;46103;52.076;113.488;2023-03-05T07:08:00;5.15;23.24
60242;SHT30;46103;52.076;113.488;2023-03-05T07:11:46;5.29;23.86
60242;SHT30;46103;52.076;113.488;2023-03-05T07:15:32;4.95;22.59
60242;SHT30;46103;52.076;113.488;2023-03-05T07:19:18;4.44;23.44
60242;SHT30;46103;52.076;113.488;2023-03-05T07:22:24;4.34;23.23
60242;SHT30;46103;52.076;113.488;2023-03-05T07:25:34;4.34;23.46
60242;SHT30;46103;52.076;113.488;2023-03-05T07:29:04;4.64;23.20
60242;SHT30;46103;52.076;113.488;2023-03-05T07:32:08;4.44;23.16
60242;SHT30;46103;52.076;113.488;2023-03-05T07:35:12;4.43;23.13
60242;SHT30;46103;52.076;113.488;2023-03-05T07:38:16;4.57;23.28
60242;SHT30;46103;52.076;113.488;2023-03-05T07:41:22;4.49;24.31
60242;SHT30;46103;52.076;113.488;2023-03-05T07:44:26;4.44;23.42
60242;SHT30;46103;52.076;113.488;2023-03-05T07:47:29;4.54;23.59
60242;SHT30;46103;52.076;113.488;2023-03-05T07:50:33;4.37;23.46
60242;SHT30;46103;52.076;113.488;2023-03-05T07:53:36;3.91;24.53
60242;SHT30;46103;52.076;113.488;2023-03-05T07:56:40;3.54;24.82
60242;SHT30;46103;52.076;113.488;2023-03-05T07:59:45;3.79;24.97
60242;SHT30;46103;52.076;113.488;2023-03-05T08:02:49;4.13;24.46
60242;SHT30;46103;52.076;113.488;2023-03-05T08:05:52;4.71;23.18
60242;SHT30;46103;52.076;113.488;2023-03-05T08:08:57;5.09;22.83
60242;SHT30;46103;52.076;113.488;2023-03-05T08:12:00;5.33;22.98
60242;SHT30;46103;52.076;113.488;2023-03-05T08:15:04;5.64;22.79
60242;SHT30;46103;52.076;113.488;2023-03-05T08:18:08;5.74;22.91
60242;SHT30;46103;52.076;113.488;2023-03-05T08:21:38;5.42;23.08
60242;SHT30;46103;52.076;113.488;2023-03-05T08:24:42;5.60;22.65
60242;SHT30;46103;52.076;113.488;2023-03-05T08:27:46;5.73;21.69
60242;SHT30;46103;52.076;113.488;2023-03-05T08:30:51;5.09;22.03
60242;SHT30;46103;52.076;113.488;2023-03-05T08:33:56;4.44;22.78
60242;SHT30;46103;52.076;113.488;2023-03-05T08:36:59;3.99;23.73
60242;SHT30;46103;52.076;113.488;2023-03-05T08:40:04;3.64;24.56
60242;SHT30;46103;52.076;113.488;2023-03-05T08:43:07;3.49;24.94
60242;SHT30;46103;52.076;113.488;2023-03-05T08:46:12;3.44;24.78
60242;SHT30;46103;52.076;113.488;2023-03-05T08:49:16;3.60;25.00
60242;SHT30;46103;52.076;113.488;2023-03-05T08:52:21;3.81;24.65
60242;SHT30;46103;52.076;113.488;2023-03-05T08:56:03;3.68;24.83
60242;SHT30;46103;52.076;113.488;2023-03-05T08:59:08;3.40;25.05
60242;SHT30;46103;52.076;113.488;2023-03-05T09:02:36;3.15;24.92
60242;SHT30;46103;52.076;113.488;2023-03-05T09:05:49;2.99;25.24
60242;SHT30;46103;52.076;113.488;2023-03-05T09:25:25;2.48;26.48
60242;SHT30;46103;52.076;113.488;2023-03-05T09:29:23;2.32;26.78
60242;SHT30;46103;52.076;113.488;2023-03-05T09:33:12;2.15;26.44
60242;SHT30;46103;52.076;113.488;2023-03-05T09:36:41;2.03;27.65
60242;SHT30;46103;52.076;113.488;2023-03-05T09:40:02;1.85;27.82
60242;SHT30;46103;52.076;113.488;2023-03-05T09:43:37;1.70;28.35
60242;SHT30;46103;52.076;113.488;2023-03-05T09:47:52;1.41;28.30
60242;SHT30;46103;52.076;113.488;2023-03-05T09:51:44;1.29;29.29
60242;SHT30;46103;52.076;113.488;2023-03-05T10:00:56;0.88;29.05
60242;SHT30;46103;52.076;113.488;2023-03-05T10:13:43;0.44;29.44
60242;SHT30;46103;52.076;113.488;2023-03-05T10:33:21;0.11;29.98
60242;SHT30;46103;52.076;113.488;2023-03-05T10:46:11;-0.02;31.06
60242;SHT30;46103;52.076;113.488;2023-03-05T10:51:09;-0.23;31.39
60242;SHT30;46103;52.076;113.488;2023-03-05T11:05:03;-0.49;31.61
60242;SHT30;46103;52.076;113.488;2023-03-05T11:12:26;-0.59;31.88
60242;SHT30;46103;52.076;113.488;2023-03-05T11:16:10;-0.63;31.70
60242;SHT30;46103;52.076;113.488;2023-03-05T11:31:23;-0.88;31.71
60242;SHT30;46103;52.076;113.488;2023-03-05T11:34:50;-0.91;32.02
60242;SHT30;46103;52.076;113.488;2023-03-05T11:38:03;-0.97;32.16
60242;SHT30;46103;52.076;113.488;2023-03-05T11:41:08;-1.01;32.47
60242;SHT30;46103;52.076;113.488;2023-03-05T11:44:31;-1.08;31.64
60242;SHT30;46103;52.076;113.488;2023-03-05T11:47:50;-1.11;31.12
60242;SHT30;46103;52.076;113.488;2023-03-05T11:51:01;-1.21;30.39
60242;SHT30;46103;52.076;113.488;2023-03-05T11:54:14;-1.28;30.72
60242;SHT30;46103;52.076;113.488;2023-03-05T11:57:23;-1.36;31.28
60242;SHT30;46103;52.076;113.488;2023-03-05T12:00:31;-1.45;30.76
60242;SHT30;46103;52.076;113.488;2023-03-05T12:03:39;-1.52;31.44
60242;SHT30;46103;52.076;113.488;2023-03-05T12:06:58;-1.62;31.27
60242;SHT30;46103;52.076;113.488;2023-03-05T12:10:15;-1.70;31.59
60242;SHT30;46103;52.076;113.488;2023-03-05T12:13:48;-1.80;31.56
60242;SHT30;46103;52.076;113.488;2023-03-05T12:17:36;-1.90;30.62
60242;SHT30;46103;52.076;113.488;2023-03-05T12:21:31;-2.05;29.63
60242;SHT30;46103;52.076;113.488;2023-03-05T12:24:50;-2.08;31.46
60242;SHT30;46103;52.076;113.488;2023-03-05T12:27:55;-2.18;30.60
60242;SHT30;46103;52.076;113.488;2023-03-05T12:31:27;-2.25;31.00
60242;SHT30;46103;52.076;113.488;2023-03-05T12:34:35;-2.36;31.75
60242;SHT30;46103;52.076;113.488;2023-03-05T12:40:47;-2.53;32.41
60242;SHT30;46103;52.076;113.488;2023-03-05T12:53:30;-2.74;32.16
60242;SHT30;46103;52.076;113.488;2023-03-05T12:56:33;-2.80;31.67
60242;SHT30;46103;52.076;113.488;2023-03-05T13:02:53;-2.84;31.67
60242;SHT30;46103;52.076;113.488;2023-03-05T13:06:00;-2.90;31.98
60242;SHT30;46103;52.076;113.488;2023-03-05T13:12:19;-3.00;31.66
60242;SHT30;46103;52.076;113.488;2023-03-05T13:15:24;-3.05;31.43
60242;SHT30;46103;52.076;113.488;2023-03-05T13:18:30;-3.07;31.43
60242;SHT30;46103;52.076;113.488;2023-03-05T13:21:34;-3.15;31.48
60242;SHT30;46103;52.076;113.488;2023-03-05T13:24:38;-3.22;31.53
60242;SHT30;46103;52.076;113.488;2023-03-05T13:27:41;-3.27;31.70
60242;SHT30;46103;52.076;113.488;2023-03-05T13:30:55;-3.30;31.86
60242;SHT30;46103;52.076;113.488;2023-03-05T13:34:13;-3.34;31.87
60242;SHT30;46103;52.076;113.488;2023-03-05T13:37:23;-3.35;31.60
60242;SHT30;46103;52.076;113.488;2023-03-05T13:40:30;-3.39;31.89
60242;SHT30;46103;52.076;113.488;2023-03-05T13:43:42;-3.38;32.11
60242;SHT30;46103;52.076;113.488;2023-03-05T13:46:46;-3.43;32.58
60242;SHT30;46103;52.076;113.488;2023-03-05T13:50:01;-3.45;32.74
60242;SHT30;46103;52.076;113.488;2023-03-05T13:56:19;-3.52;33.29
60242;SHT30;46103;52.076;113.488;2023-03-05T13:59:28;-3.53;33.59
60242;SHT30;46103;52.076;113.488;2023-03-05T14:02:32;-3.58;33.87
60242;SHT30;46103;52.076;113.488;2023-03-05T14:05:42;-3.63;34.03
60242;SHT30;46103;52.076;113.488;2023-03-05T14:08:51;-3.64;34.42
60242;SHT30;46103;52.076;113.488;2023-03-05T14:12:03;-3.71;34.61
60242;SHT30;46103;52.076;113.488;2023-03-05T14:15:27;-3.76;34.39
60242;SHT30;46103;52.076;113.488;2023-03-05T14:18:32;-3.80;35.01
60242;SHT30;46103;52.076;113.488;2023-03-05T14:21:47;-3.84;35.14
60242;SHT30;46103;52.076;113.488;2023-03-05T14:24:52;-3.90;35.13
60242;SHT30;46103;52.076;113.488;2023-03-05T14:27:56;-3.91;35.31
60242;SHT30;46103;52.076;113.488;2023-03-05T14:31:00;-3.94;35.54
60242;SHT30;46103;52.076;113.488;2023-03-05T14:34:05;-3.95;35.41
60242;SHT30;46103;52.076;113.488;2023-03-05T14:37:22;-4.00;35.63
60242;SHT30;46103;52.076;113.488;2023-03-05T14:40:32;-4.02;35.65
60242;SHT30;46103;52.076;113.488;2023-03-05T14:43:36;-4.04;35.90
60242;SHT30;46103;52.076;113.488;2023-03-05T14:46:41;-4.02;36.01
60242;SHT30;46103;52.076;113.488;2023-03-05T14:49:45;-4.05;36.15
60242;SHT30;46103;52.076;113.488;2023-03-05T14:52:52;-4.09;36.41
60242;SHT30;46103;52.076;113.488;2023-03-05T14:55:56;-4.09;36.78
60242;SHT30;46103;52.076;113.488;2023-03-05T14:59:00;-4.14;36.80
60242;SHT30;46103;52.076;113.488;2023-03-05T15:05:29;-4.14;36.82
60242;SHT30;46103;52.076;113.488;2023-03-05T15:08:34;-4.19;36.92
60242;SHT30;46103;52.076;113.488;2023-03-05T15:11:38;-4.19;37.18
60242;SHT30;46103;52.076;113.488;2023-03-05T15:14:42;-4.21;37.20
60242;SHT30;46103;52.076;113.488;2023-03-05T15:17:47;-4.24;37.47
60242;SHT30;46103;52.076;113.488;2023-03-05T15:20:55;-4.26;37.42
60242;SHT30;46103;52.076;113.488;2023-03-05T15:23:59;-4.30;37.54
60242;SHT30;46103;52.076;113.488;2023-03-05T15:27:03;-4.38;37.80
60242;SHT30;46103;52.076;113.488;2023-03-05T15:33:21;-4.56;38.37
60242;SHT30;46103;52.076;113.488;2023-03-05T15:36:25;-4.63;38.63
60242;SHT30;46103;52.076;113.488;2023-03-05T15:39:29;-4.69;38.98
60242;SHT30;46103;52.076;113.488;2023-03-05T15:42:33;-4.73;38.91
60242;SHT30;46103;52.076;113.488;2023-03-05T15:45:37;-4.77;39.10
60242;SHT30;46103;52.076;113.488;2023-03-05T15:48:40;-4.80;39.22
60242;SHT30;46103;52.076;113.488;2023-03-05T15:51:47;-4.81;39.65
60242;SHT30;46103;52.076;113.488;2023-03-05T15:54:50;-4.83;40.08
60242;SHT30;46103;52.076;113.488;2023-03-05T15:57:55;-4.84;40.37
60242;SHT30;46103;52.076;113.488;2023-03-05T16:00:58;-4.91;40.69
60242;SHT30;46103;52.076;113.488;2023-03-05T16:04:03;-4.95;41.17
60242;SHT30;46103;52.076;113.488;2023-03-05T16:07:07;-5.01;41.79
60242;SHT30;46103;52.076;113.488;2023-03-05T16:10:14;-5.08;42.25
60242;SHT30;46103;52.076;113.488;2023-03-05T16:13:19;-5.11;42.60
60242;SHT30;46103;52.076;113.488;2023-03-05T16:16:24;-5.12;43.00
60242;SHT30;46103;52.076;113.488;2023-03-05T16:19:28;-5.16;43.35
60242;SHT30;46103;52.076;113.488;2023-03-05T16:22:33;-5.19;43.66
60242;SHT30;46103;52.076;113.488;2023-03-05T16:25:36;-5.23;44.01
60242;SHT30;46103;52.076;113.488;2023-03-05T16:28:41;-5.28;44.34
60242;SHT30;46103;52.076;113.488;2023-03-05T16:31:44;-5.29;44.51
60242;SHT30;46103;52.076;113.488;2023-03-05T16:34:50;-5.33;44.84
60242;SHT30;46103;52.076;113.488;2023-03-05T16:37:54;-5.38;45.88
60242;SHT30;46103;52.076;113.488;2023-03-05T16:40:57;-5.44;46.57
60242;SHT30;46103;52.076;113.488;2023-03-05T16:44:09;-5.53;46.84
60242;SHT30;46103;52.076;113.488;2023-03-05T16:47:14;-5.60;47.09
60242;SHT30;46103;52.076;113.488;2023-03-05T16:50:18;-5.69;47.50
60242;SHT30;46103;52.076;113.488;2023-03-05T16:53:22;-5.74;47.65
60242;SHT30;46103;52.076;113.488;2023-03-05T16:56:25;-5.73;47.73
60242;SHT30;46103;52.076;113.488;2023-03-05T16:59:29;-5.74;47.67
60242;SHT30;46103;52.076;113.488;2023-03-05T17:02:32;-5.74;47.52
60242;SHT30;46103;52.076;113.488;2023-03-05T17:05:37;-5.70;47.35
60242;SHT30;46103;52.076;113.488;2023-03-05T17:08:41;-5.70;47.34
60242;SHT30;46103;52.076;113.488;2023-03-05T17:11:46;-5.70;47.39
60242;SHT30;46103;52.076;113.488;2023-03-05T17:14:49;-5.74;47.30
60242;SHT30;46103;52.076;113.488;2023-03-05T17:17:53;-5.76;47.25
60242;SHT30;46103;52.076;113.488;2023-03-05T17:20:57;-5.73;47.23
60242;SHT30;46103;52.076;113.488;2023-03-05T17:24:01;-5.69;47.10
60242;SHT30;46103;52.076;113.488;2023-03-05T17:27:04;-5.70;47.20
60242;SHT30;46103;52.076;113.488;2023-03-05T17:30:09;-5.71;47.24
60242;SHT30;46103;52.076;113.488;2023-03-05T17:33:12;-5.73;47.27
60242;SHT30;46103;52.076;113.488;2023-03-05T17:36:19;-5.74;46.90
60242;SHT30;46103;52.076;113.488;2023-03-05T17:39:23;-5.74;46.92
60242;SHT30;46103;52.076;113.488;2023-03-05T17:42:27;-5.73;46.82
60242;SHT30;46103;52.076;113.488;2023-03-05T17:45:30;-5.79;46.89
60242;SHT30;46103;52.076;113.488;2023-03-05T17:48:35;-5.84;47.00
60242;SHT30;46103;52.076;113.488;2023-03-05T17:51:41;-5.90;47.06
60242;SHT30;46103;52.076;113.488;2023-03-05T17:54:45;-5.91;47.15
60242;SHT30;46103;52.076;113.488;2023-03-05T17:57:49;-5.94;47.20
60242;SHT30;46103;52.076;113.488;2023-03-05T18:00:53;-5.97;47.31
60242;SHT30;46103;52.076;113.488;2023-03-05T18:03:57;-5.95;47.23
60242;SHT30;46103;52.076;113.488;2023-03-05T18:07:00;-5.91;47.18
60242;SHT30;46103;52.076;113.488;2023-03-05T18:10:05;-5.94;47.10
60242;SHT30;46103;52.076;113.488;2023-03-05T18:13:10;-5.97;47.00
60242;SHT30;46103;52.076;113.488;2023-03-05T18:16:13;-6.00;47.16
60242;SHT30;46103;52.076;113.488;2023-03-05T18:19:19;-6.02;47.09
60242;SHT30;46103;52.076;113.488;2023-03-05T18:22:23;-6.02;47.21
60242;SHT30;46103;52.076;113.488;2023-03-05T18:25:27;-6.05;47.21
60242;SHT30;46103;52.076;113.488;2023-03-05T18:28:34;-6.07;47.25
60242;SHT30;46103;52.076;113.488;2023-03-05T18:31:40;-6.12;47.39
60242;SHT30;46103;52.076;113.488;2023-03-05T18:34:43;-6.14;47.51
60242;SHT30;46103;52.076;113.488;2023-03-05T18:37:46;-6.18;47.64
60242;SHT30;46103;52.076;113.488;2023-03-05T18:40:51;-6.15;47.83
60242;SHT30;46103;52.076;113.488;2023-03-05T18:43:56;-6.17;47.78
60242;SHT30;46103;52.076;113.488;2023-03-05T18:47:00;-6.18;47.97
60242;SHT30;46103;52.076;113.488;2023-03-05T18:50:05;-6.22;48.65
60242;SHT30;46103;52.076;113.488;2023-03-05T18:53:12;-6.36;49.11
60242;SHT30;46103;52.076;113.488;2023-03-05T18:56:16;-6.46;49.52
60242;SHT30;46103;52.076;113.488;2023-03-05T18:59:19;-6.54;49.93
60242;SHT30;46103;52.076;113.488;2023-03-05T19:02:23;-6.63;49.58
60242;SHT30;46103;52.076;113.488;2023-03-05T19:05:26;-6.69;49.60
60242;SHT30;46103;52.076;113.488;2023-03-05T19:08:31;-6.77;49.93
60242;SHT30;46103;52.076;113.488;2023-03-05T19:11:34;-6.87;50.38
60242;SHT30;46103;52.076;113.488;2023-03-05T19:14:38;-6.94;50.90
60242;SHT30;46103;52.076;113.488;2023-03-05T19:17:42;-7.01;51.63
60242;SHT30;46103;52.076;113.488;2023-03-05T19:20:53;-7.11;52.10
60242;SHT30;46103;52.076;113.488;2023-03-05T19:23:58;-7.16;52.57
60242;SHT30;46103;52.076;113.488;2023-03-05T19:27:01;-7.22;53.35
60242;SHT30;46103;52.076;113.488;2023-03-05T19:30:13;-7.16;54.22
60242;SHT30;46103;52.076;113.488;2023-03-05T19:33:18;-7.14;54.05
60242;SHT30;46103;52.076;113.488;2023-03-05T19:36:23;-7.07;53.46
60242;SHT30;46103;52.076;113.488;2023-03-05T19:39:27;-7.12;52.93
60242;SHT30;46103;52.076;113.488;2023-03-05T19:42:30;-7.21;52.74
60242;SHT30;46103;52.076;113.488;2023-03-05T19:45:33;-7.16;52.39
60242;SHT30;46103;52.076;113.488;2023-03-05T19:48:37;-7.12;52.07
60242;SHT30;46103;52.076;113.488;2023-03-05T19:51:42;-7.07;51.69
60242;SHT30;46103;52.076;113.488;2023-03-05T19:54:46;-7.08;51.86
60242;SHT30;46103;52.076;113.488;2023-03-05T19:57:50;-7.08;51.83
60242;SHT30;46103;52.076;113.488;2023-03-05T20:00:53;-7.14;51.90
60242;SHT30;46103;52.076;113.488;2023-03-05T20:03:59;-7.16;52.09
60242;SHT30;46103;52.076;113.488;2023-03-05T20:07:02;-7.19;52.37
60242;SHT30;46103;52.076;113.488;2023-03-05T20:10:08;-7.23;52.61
60242;SHT30;46103;52.076;113.488;2023-03-05T20:13:11;-7.28;52.70
60242;SHT30;46103;52.076;113.488;2023-03-05T20:16:21;-7.33;52.98
60242;SHT30;46103;52.076;113.488;2023-03-05T20:19:25;-7.36;53.05
60242;SHT30;46103;52.076;113.488;2023-03-05T20:22:29;-7.36;53.21
60242;SHT30;46103;52.076;113.488;2023-03-05T20:25:33;-7.44;53.33
60242;SHT30;46103;52.076;113.488;2023-03-05T20:28:36;-7.46;53.50
60242;SHT30;46103;52.076;113.488;2023-03-05T20:31:40;-7.46;53.49
60242;SHT30;46103;52.076;113.488;2023-03-05T20:34:45;-7.43;53.42
60242;SHT30;46103;52.076;113.488;2023-03-05T20:37:50;-7.44;53.37
60242;SHT30;46103;52.076;113.488;2023-03-05T20:41:17;-7.52;53.57
60242;SHT30;46103;52.076;113.488;2023-03-05T20:44:23;-7.52;53.51
60242;SHT30;46103;52.076;113.488;2023-03-05T20:47:27;-7.57;53.61
60242;SHT30;46103;52.076;113.488;2023-03-05T20:50:42;-7.60;53.46
60242;SHT30;46103;52.076;113.488;2023-03-05T20:53:46;-7.64;53.69
60242;SHT30;46103;52.076;113.488;2023-03-05T20:56:50;-7.64;53.61
60242;SHT30;46103;52.076;113.488;2023-03-05T20:59:54;-7.66;53.70
60242;SHT30;46103;52.076;113.488;2023-03-05T21:02:58;-7.70;53.91
60242;SHT30;46103;52.076;113.488;2023-03-05T21:06:02;-7.69;53.91
60242;SHT30;46103;52.076;113.488;2023-03-05T21:09:06;-7.73;54.07
60242;SHT30;46103;52.076;113.488;2023-03-05T21:12:10;-7.69;54.18
60242;SHT30;46103;52.076;113.488;2023-03-05T21:15:16;-7.63;53.97
60242;SHT30;46103;52.076;113.488;2023-03-05T21:18:20;-7.61;54.04
60242;SHT30;46103;52.076;113.488;2023-03-05T21:21:24;-7.60;54.10
60242;SHT30;46103;52.076;113.488;2023-03-05T21:24:28;-7.60;54.03